Sunday, February 17, 2019, 2:06 PM CST
Back to Local

KPWK, Chicago Executive Airport

Location: Wheeling, IL, United States Lat: 42.117
Local Time: 2:06 PM CST (20:06 GMT) Lon: -87.9
Time Zone: US/Central Elev: 646 ft

Show me the last for .
Show Decoded

2019-02-17 13:52 METAR KPWK 171952Z 06007KT 5SM HZ OVC011 M02/M05 A2983 RMK AO2 SLP110 T10171050
                 =
2019-02-17 12:52 METAR KPWK 171852Z 07009G14KT 10SM OVC013 M02/M06 A2984 RMK AO2 SLP114 T10171056
                 =
2019-02-17 11:52 METAR KPWK 171752Z 10009KT 6SM HZ BKN010 BKN017 OVC040 M02/M06 A2987 RMK AO2
                 SNE40 SLP123 P0000 60000 T10171056 11017 21033 56012 =
2019-02-17 11:40 METAR KPWK 171740Z 10006G15KT 5SM HZ BKN010 OVC040 M02/M05 A2988 RMK AO2 SNE40
                 P0000 T10221050 =
2019-02-17 11:32 METAR KPWK 171732Z 11008G17KT 3SM -SN SCT010 BKN015 OVC040 M02/M05 A2988 RMK AO2
                 P0000 T10221050 =
2019-02-17 11:28 METAR KPWK 171728Z 09009G17KT 2SM -SN BKN010 BKN015 OVC040 M02/M05 A2988 RMK AO2
                 P0000 T10221050 =
2019-02-17 11:19 METAR KPWK 171719Z 10008G17KT 1 1/4SM -SN SCT009 BKN015 OVC039 M02/M05 A2989 RMK
                 AO2 P0000 T10221050 =
2019-02-17 11:11 METAR KPWK 171711Z 10007G18KT 3/4SM -SN SCT009 OVC017 M02/M05 A2989 RMK AO2
                 P0000 T10221050 =
2019-02-17 11:03 METAR KPWK 171703Z 09011G18KT 3/4SM -SN SCT009 OVC013 M02/M05 A2988 RMK AO2
                 P0000 T10221050 =
2019-02-17 10:52 METAR KPWK 171652Z 10009KT 1SM -SN BKN010 OVC036 M02/M05 A2989 RMK AO2 SLP129
                 P0000 T10221050 =
2019-02-17 10:31 METAR KPWK 171631Z 11010KT 1/4SM +SN FZFG VV007 M03/M05 A2989 RMK AO2 P0000
                 T10281050 =
2019-02-17 10:23 METAR KPWK 171623Z 09008KT 1/2SM SN FZFG BKN010 OVC016 M03/M05 A2989 RMK AO2
                 P0000 T10281050 =
2019-02-17 10:15 METAR KPWK 171615Z 11008G19KT 1SM -SN BKN010 OVC015 M03/M06 A2988 RMK AO2 P0000
                 T10281056 =
2019-02-17 10:09 METAR KPWK 171609Z 10007G16KT 2 1/2SM -SN BKN010 OVC015 M03/M06 A2988 RMK AO2
                 P0000 T10281056 =
2019-02-17 10:01 METAR KPWK 171601Z 10008KT 1 3/4SM -SN BR OVC010 M03/M05 A2988 RMK AO2 P0000
                 T10281050 =
2019-02-17 09:52 METAR KPWK 171552Z 10008KT 1SM -SN BR VV010 M03/M05 A2988 RMK AO2 SLP126 P0000
                 T10281050 =
2019-02-17 09:27 METAR KPWK 171527Z 10007G15KT 1/2SM -SN VV013 M03/M06 A2989 RMK AO2 SFC VIS 3/4
                 P0000 T10281056 =
2019-02-17 09:20 METAR KPWK 171520Z 10008KT 1SM -SN VV015 M03/M06 A2989 RMK AO2 P0000 T10281056 =
2019-02-17 09:14 METAR KPWK 171514Z 10007KT 3/4SM -SN BR FEW008 OVC012 M03/M06 A2990 RMK AO2
                 P0000 T10331056 =
2019-02-17 09:04 METAR KPWK 171504Z 10007KT 1/4SM +SN FZFG VV008 M03/M06 A2990 RMK AO2 P0000
                 T10331056 =
2019-02-17 08:52 METAR KPWK 171452Z 10007KT 1/2SM SN FZFG SCT009 OVC013 M03/M06 A2991 RMK AO2
                 SLP135 P0000 60000 T10331056 56008 =
2019-02-17 08:47 METAR KPWK 171447Z 11007KT 1/2SM SN FZFG SCT009 OVC015 M03/M06 A2991 RMK AO2
                 P0000 =
2019-02-17 08:42 METAR KPWK 171442Z 10007KT 1SM -SN BKN009 OVC020 M03/M06 A2991 RMK AO2 P0000
                 T10281056 =
2019-02-17 08:36 METAR KPWK 171436Z 10006KT 1 1/2SM -SN BR SCT009 OVC024 M03/M06 A2991 RMK AO2
                 P0000 T10331056 =
2019-02-17 08:26 METAR KPWK 171426Z 09007KT 1SM -SN BR FEW009 OVC026 M03/M06 A2991 RMK AO2 P0000
                 T10331056 =
2019-02-17 08:16 METAR KPWK 171416Z 10007KT 1SM -SN FEW009 BKN030 OVC036 M03/M06 A2991 RMK AO2
                 P0000 T10331061 =
2019-02-17 08:02 METAR KPWK 171402Z 09007KT 1 1/4SM -SN FEW009 BKN034 OVC047 M03/M06 A2992 RMK
                 AO2 SFC VIS 1 1/2 P0000 T10331061 =
2019-02-17 07:52 METAR KPWK 171352Z 11007KT 1 1/4SM -SN BR BKN031 BKN038 OVC047 M03/M06 A2992 RMK
                 AO2 SFC VIS 1 1/2 SLP141 P0000 T10331056 =
2019-02-17 07:39 METAR KPWK 171339Z 10006KT 1 1/4SM -SN BR OVC023 M03/M06 A2992 RMK AO2 P0000
                 T10331056 =
2019-02-17 07:32 METAR KPWK 171332Z 10006KT 3/4SM -SN BR VV019 M03/M06 A2992 RMK AO2 SFC VIS 1
                 P0000 T10331056 =
2019-02-17 07:25 METAR KPWK 171325Z 09006KT 1/2SM SN VV014 M03/M06 A2992 RMK AO2 TWR VIS 3/4
                 P0000 T10331061 =
2019-02-17 07:13 METAR KPWK 171313Z 10005KT 1/4SM +SN VV009 M03/M06 A2992 RMK AO2 TWR VIS 1/2
                 P0000 T10331061 =
2019-02-17 07:02 METAR KPWK 171302Z 11006KT 3/4SM -SN VV011 M03/M06 A2991 RMK AO2 TWR VIS 1 P0000
                 T10331061 =
2019-02-17 06:52 METAR KPWK 171252Z 11007KT 1 1/4SM -SN OVC013 M03/M06 A2991 RMK AO2 SNB01 SLP138
                 P0000 T10331061 =
2019-02-17 06:34 METAR KPWK 171234Z AUTO 10005KT 1 1/4SM -SN BKN012 OVC018 M03/M07 A2991 RMK AO2
                 SNB01 P0000 T10331067 =
2019-02-17 06:24 METAR KPWK 171224Z AUTO 09007KT 1SM -SN BKN011 OVC018 M03/M07 A2991 RMK AO2
                 SNB01 P0000 T10331067 =
2019-02-17 06:14 METAR KPWK 171214Z AUTO 10006KT 1 3/4SM -SN SCT011 OVC018 M03/M07 A2992 RMK AO2
                 SNB01 P0000 T10281072 =
2019-02-17 05:52 METAR KPWK 171152Z AUTO 11006KT 10SM OVC016 M03/M07 A2993 RMK AO2 SLP144
                 T10281072 11028 21033 56017 =
2019-02-17 04:52 METAR KPWK 171052Z AUTO 10008KT 10SM OVC016 M03/M07 A2994 RMK AO2 SLP148
                 T10281072 =
2019-02-17 03:52 METAR KPWK 170952Z AUTO 09008KT 10SM OVC016 M03/M08 A2995 RMK AO2 SLP150
                 T10281078 =
2019-02-17 02:52 METAR KPWK 170852Z AUTO 11006KT 10SM OVC018 M03/M08 A2998 RMK AO2 SLP161
                 T10281078 58001 =
2019-02-17 01:52 METAR KPWK 170752Z AUTO 08007KT 10SM OVC018 M03/M08 A2999 RMK AO2 SLP162
                 T10281078 =
2019-02-17 00:52 METAR KPWK 170652Z AUTO 12009KT 10SM OVC017 M03/M08 A3001 RMK AO2 SLP169
                 T10281078 =
2019-02-16 23:52 METAR KPWK 170552Z AUTO 09009G19KT 10SM OVC018 M03/M08 A2999 RMK AO2 SLP162
                 T10281083 11022 21033 410061100 58016 =
2019-02-16 22:52 METAR KPWK 170452Z AUTO 10010G18KT 10SM OVC020 M03/M08 A3000 RMK AO2 SLP169
                 T10281083 =
2019-02-16 21:52 METAR KPWK 170352Z 10009G19KT 10SM OVC021 M02/M08 A3004 RMK AO2 SLP182 T10221083
                 =
2019-02-16 20:52 METAR KPWK 170252Z 08008G15KT 10SM OVC020 M03/M08 A3003 RMK AO2 SLP179 T10281083
                 58013 =
2019-02-16 19:52 METAR KPWK 170152Z 08009KT 10SM OVC020 M03/M08 A3006 RMK AO2 SLP190 T10281078 =
2019-02-16 18:52 METAR KPWK 170052Z 07008KT 10SM OVC022 M02/M08 A3009 RMK AO2 SLP201 T10221083 =
2019-02-16 17:52 METAR KPWK 162352Z 05009KT 10SM OVC022 M02/M08 A3007 RMK AO2 SLP194 T10221083
                 11006 21022 56000 =
2019-02-16 16:52 METAR KPWK 162252Z 09007G15KT 10SM OVC023 M02/M08 A3007 RMK AO2 SLP193 T10171078
                 =
2019-02-16 15:52 METAR KPWK 162152Z 06008KT 10SM OVC023 M01/M07 A3006 RMK AO2 SLP190 T10111067 =
2019-02-16 14:52 METAR KPWK 162052Z 02007KT 10SM OVC023 M01/M06 A3007 RMK AO2 SLP193 T10111061
                 56021 =

Support USWX by starting your Amazon purchase here.